sensor_id;sensor_type;location;lat;lon;timestamp;P1;durP1;ratioP1;P2;durP2;ratioP2
215;SDS011;64590;48.81286795;9.14184224;2022-11-15T00:00:09;9.83;;;5.00;;
215;SDS011;64590;48.81286795;9.14184224;2022-11-15T00:02:55;10.07;;;4.67;;
215;SDS011;64590;48.81286795;9.14184224;2022-11-15T00:05:42;13.97;;;5.30;;
215;SDS011;64590;48.81286795;9.14184224;2022-11-15T00:08:28;8.40;;;4.60;;
215;SDS011;64590;48.81286795;9.14184224;2022-11-15T00:11:14;12.40;;;4.90;;
215;SDS011;64590;48.81286795;9.14184224;2022-11-15T00:13:59;10.00;;;5.00;;
215;SDS011;64590;48.81286795;9.14184224;2022-11-15T00:16:46;9.33;;;4.20;;
215;SDS011;64590;48.81286795;9.14184224;2022-11-15T00:19:31;8.10;;;4.60;;
215;SDS011;64590;48.81286795;9.14184224;2022-11-15T00:22:18;7.03;;;4.00;;
215;SDS011;64590;48.81286795;9.14184224;2022-11-15T00:25:03;8.23;;;4.50;;
215;SDS011;64590;48.81286795;9.14184224;2022-11-15T00:27:49;8.60;;;4.50;;
215;SDS011;64590;48.81286795;9.14184224;2022-11-15T00:30:35;13.53;;;5.00;;
215;SDS011;64590;48.81286795;9.14184224;2022-11-15T00:33:20;10.67;;;4.77;;
215;SDS011;64590;48.81286795;9.14184224;2022-11-15T00:36:06;12.60;;;4.80;;
215;SDS011;64590;48.81286795;9.14184224;2022-11-15T00:38:55;9.00;;;5.17;;
215;SDS011;64590;48.81286795;9.14184224;2022-11-15T00:41:40;9.20;;;4.80;;
215;SDS011;64590;48.81286795;9.14184224;2022-11-15T00:44:25;9.20;;;4.63;;
215;SDS011;64590;48.81286795;9.14184224;2022-11-15T00:47:10;9.00;;;4.70;;
215;SDS011;64590;48.81286795;9.14184224;2022-11-15T00:49:55;8.47;;;4.73;;
215;SDS011;64590;48.81286795;9.14184224;2022-11-15T00:52:41;9.80;;;4.60;;
215;SDS011;64590;48.81286795;9.14184224;2022-11-15T00:55:27;8.10;;;4.40;;
215;SDS011;64590;48.81286795;9.14184224;2022-11-15T00:58:12;7.97;;;4.43;;
215;SDS011;64590;48.81286795;9.14184224;2022-11-15T01:01:04;11.43;;;5.20;;
215;SDS011;64590;48.81286795;9.14184224;2022-11-15T01:03:51;7.57;;;4.60;;
215;SDS011;64590;48.81286795;9.14184224;2022-11-15T01:06:36;9.37;;;4.33;;
215;SDS011;64590;48.81286795;9.14184224;2022-11-15T01:09:22;8.63;;;4.67;;
215;SDS011;64590;48.81286795;9.14184224;2022-11-15T01:12:08;7.63;;;4.53;;
215;SDS011;64590;48.81286795;9.14184224;2022-11-15T01:14:53;8.87;;;4.47;;
215;SDS011;64590;48.81286795;9.14184224;2022-11-15T01:17:38;7.50;;;4.10;;
215;SDS011;64590;48.81286795;9.14184224;2022-11-15T01:20:24;11.30;;;4.80;;
215;SDS011;64590;48.81286795;9.14184224;2022-11-15T01:23:09;8.10;;;4.17;;
215;SDS011;64590;48.81286795;9.14184224;2022-11-15T01:25:58;8.20;;;4.63;;
215;SDS011;64590;48.81286795;9.14184224;2022-11-15T01:28:45;8.50;;;4.60;;
215;SDS011;64590;48.81286795;9.14184224;2022-11-15T01:31:30;6.93;;;4.33;;
215;SDS011;64590;48.81286795;9.14184224;2022-11-15T01:34:16;10.40;;;4.67;;
215;SDS011;64590;48.81286795;9.14184224;2022-11-15T01:37:01;7.40;;;4.30;;
215;SDS011;64590;48.81286795;9.14184224;2022-11-15T01:39:47;11.03;;;4.57;;
215;SDS011;64590;48.81286795;9.14184224;2022-11-15T01:42:32;8.30;;;5.17;;
215;SDS011;64590;48.81286795;9.14184224;2022-11-15T01:45:19;8.37;;;4.80;;
215;SDS011;64590;48.81286795;9.14184224;2022-11-15T01:48:07;9.80;;;4.70;;
215;SDS011;64590;48.81286795;9.14184224;2022-11-15T01:50:55;9.63;;;4.83;;
215;SDS011;64590;48.81286795;9.14184224;2022-11-15T01:53:41;7.20;;;4.83;;
215;SDS011;64590;48.81286795;9.14184224;2022-11-15T01:56:30;7.77;;;4.67;;
215;SDS011;64590;48.81286795;9.14184224;2022-11-15T01:59:20;13.30;;;5.00;;
215;SDS011;64590;48.81286795;9.14184224;2022-11-15T02:02:08;10.07;;;5.00;;
215;SDS011;64590;48.81286795;9.14184224;2022-11-15T02:04:53;7.63;;;4.63;;
215;SDS011;64590;48.81286795;9.14184224;2022-11-15T02:07:38;12.73;;;5.00;;
215;SDS011;64590;48.81286795;9.14184224;2022-11-15T02:10:24;7.77;;;4.77;;
215;SDS011;64590;48.81286795;9.14184224;2022-11-15T02:13:09;8.97;;;4.90;;
215;SDS011;64590;48.81286795;9.14184224;2022-11-15T02:15:58;9.60;;;4.97;;
215;SDS011;64590;48.81286795;9.14184224;2022-11-15T02:18:49;9.60;;;4.70;;
215;SDS011;64590;48.81286795;9.14184224;2022-11-15T02:21:41;9.23;;;5.10;;
215;SDS011;64590;48.81286795;9.14184224;2022-11-15T02:24:41;8.43;;;4.50;;
215;SDS011;64590;48.81286795;9.14184224;2022-11-15T02:27:49;9.87;;;4.50;;
215;SDS011;64590;48.81286795;9.14184224;2022-11-15T02:30:50;9.63;;;4.60;;
215;SDS011;64590;48.81286795;9.14184224;2022-11-15T02:33:41;11.47;;;4.90;;
215;SDS011;64590;48.81286795;9.14184224;2022-11-15T02:36:34;9.00;;;5.30;;
215;SDS011;64590;48.81286795;9.14184224;2022-11-15T02:39:27;7.70;;;4.70;;
215;SDS011;64590;48.81286795;9.14184224;2022-11-15T02:42:21;10.20;;;4.90;;
215;SDS011;64590;48.81286795;9.14184224;2022-11-15T02:45:28;9.37;;;5.67;;
215;SDS011;64590;48.81286795;9.14184224;2022-11-15T02:48:19;10.30;;;5.53;;
215;SDS011;64590;48.81286795;9.14184224;2022-11-15T02:51:07;11.10;;;4.90;;
215;SDS011;64590;48.81286795;9.14184224;2022-11-15T02:53:53;9.10;;;5.30;;
215;SDS011;64590;48.81286795;9.14184224;2022-11-15T02:56:38;8.70;;;5.10;;
215;SDS011;64590;48.81286795;9.14184224;2022-11-15T02:59:26;7.73;;;5.13;;
215;SDS011;64590;48.81286795;9.14184224;2022-11-15T03:02:36;10.03;;;4.80;;
215;SDS011;64590;48.81286795;9.14184224;2022-11-15T03:05:44;9.17;;;5.00;;
215;SDS011;64590;48.81286795;9.14184224;2022-11-15T03:08:39;9.13;;;5.07;;
215;SDS011;64590;48.81286795;9.14184224;2022-11-15T03:11:37;10.63;;;5.47;;
215;SDS011;64590;48.81286795;9.14184224;2022-11-15T03:14:27;7.23;;;4.53;;
215;SDS011;64590;48.81286795;9.14184224;2022-11-15T03:17:18;7.63;;;4.70;;
215;SDS011;64590;48.81286795;9.14184224;2022-11-15T03:20:09;10.00;;;4.70;;
215;SDS011;64590;48.81286795;9.14184224;2022-11-15T03:22:59;9.20;;;4.80;;
215;SDS011;64590;48.81286795;9.14184224;2022-11-15T03:25:49;6.97;;;4.37;;
215;SDS011;64590;48.81286795;9.14184224;2022-11-15T03:28:38;7.67;;;4.40;;
215;SDS011;64590;48.81286795;9.14184224;2022-11-15T03:31:28;8.13;;;4.47;;
215;SDS011;64590;48.81286795;9.14184224;2022-11-15T03:34:33;9.60;;;4.37;;
215;SDS011;64590;48.81286795;9.14184224;2022-11-15T03:37:22;9.47;;;4.57;;
215;SDS011;64590;48.81286795;9.14184224;2022-11-15T03:40:12;8.27;;;4.60;;
215;SDS011;64590;48.81286795;9.14184224;2022-11-15T03:43:00;12.60;;;4.47;;
215;SDS011;64590;48.81286795;9.14184224;2022-11-15T03:45:50;8.10;;;4.60;;
215;SDS011;64590;48.81286795;9.14184224;2022-11-15T03:48:40;7.40;;;4.30;;
215;SDS011;64590;48.81286795;9.14184224;2022-11-15T03:51:30;7.13;;;4.50;;
215;SDS011;64590;48.81286795;9.14184224;2022-11-15T03:54:15;8.77;;;4.50;;
215;SDS011;64590;48.81286795;9.14184224;2022-11-15T03:57:02;7.50;;;4.67;;
215;SDS011;64590;48.81286795;9.14184224;2022-11-15T03:59:47;8.27;;;4.50;;
215;SDS011;64590;48.81286795;9.14184224;2022-11-15T04:02:32;8.90;;;4.93;;
215;SDS011;64590;48.81286795;9.14184224;2022-11-15T04:05:17;7.93;;;4.90;;
215;SDS011;64590;48.81286795;9.14184224;2022-11-15T04:08:03;9.00;;;4.70;;
215;SDS011;64590;48.81286795;9.14184224;2022-11-15T04:10:48;8.33;;;5.10;;
215;SDS011;64590;48.81286795;9.14184224;2022-11-15T04:13:35;9.40;;;4.70;;
215;SDS011;64590;48.81286795;9.14184224;2022-11-15T04:16:20;7.37;;;4.50;;
215;SDS011;64590;48.81286795;9.14184224;2022-11-15T04:19:06;7.87;;;4.17;;
215;SDS011;64590;48.81286795;9.14184224;2022-11-15T04:22:09;8.60;;;4.70;;
215;SDS011;64590;48.81286795;9.14184224;2022-11-15T04:25:26;8.27;;;4.50;;
215;SDS011;64590;48.81286795;9.14184224;2022-11-15T04:28:12;11.10;;;4.87;;
215;SDS011;64590;48.81286795;9.14184224;2022-11-15T04:30:58;11.60;;;5.73;;
215;SDS011;64590;48.81286795;9.14184224;2022-11-15T04:33:44;10.37;;;5.07;;
215;SDS011;64590;48.81286795;9.14184224;2022-11-15T04:36:29;9.60;;;4.80;;
215;SDS011;64590;48.81286795;9.14184224;2022-11-15T04:39:32;9.13;;;5.00;;
215;SDS011;64590;48.81286795;9.14184224;2022-11-15T04:42:18;10.07;;;4.90;;
215;SDS011;64590;48.81286795;9.14184224;2022-11-15T04:45:03;10.87;;;5.00;;
215;SDS011;64590;48.81286795;9.14184224;2022-11-15T04:47:50;9.17;;;4.90;;
215;SDS011;64590;48.81286795;9.14184224;2022-11-15T04:50:35;8.97;;;5.33;;
215;SDS011;64590;48.81286795;9.14184224;2022-11-15T04:53:21;9.77;;;5.00;;
215;SDS011;64590;48.81286795;9.14184224;2022-11-15T04:56:06;8.80;;;5.00;;
215;SDS011;64590;48.81286795;9.14184224;2022-11-15T04:58:51;8.63;;;4.83;;
215;SDS011;64590;48.81286795;9.14184224;2022-11-15T05:01:36;7.77;;;4.83;;
215;SDS011;64590;48.81286795;9.14184224;2022-11-15T05:04:23;9.10;;;4.80;;
215;SDS011;64590;48.81286795;9.14184224;2022-11-15T05:07:07;7.87;;;5.00;;
215;SDS011;64590;48.81286795;9.14184224;2022-11-15T05:09:52;8.57;;;5.00;;
215;SDS011;64590;48.81286795;9.14184224;2022-11-15T05:12:38;11.53;;;5.40;;
215;SDS011;64590;48.81286795;9.14184224;2022-11-15T05:15:23;9.77;;;5.07;;
215;SDS011;64590;48.81286795;9.14184224;2022-11-15T05:18:08;10.20;;;5.27;;
215;SDS011;64590;48.81286795;9.14184224;2022-11-15T05:20:54;10.77;;;4.60;;
215;SDS011;64590;48.81286795;9.14184224;2022-11-15T05:23:40;10.23;;;5.50;;
215;SDS011;64590;48.81286795;9.14184224;2022-11-15T05:26:25;9.20;;;4.80;;
215;SDS011;64590;48.81286795;9.14184224;2022-11-15T05:29:10;7.60;;;4.67;;
215;SDS011;64590;48.81286795;9.14184224;2022-11-15T05:31:56;11.90;;;4.77;;
215;SDS011;64590;48.81286795;9.14184224;2022-11-15T05:34:41;8.40;;;4.70;;
215;SDS011;64590;48.81286795;9.14184224;2022-11-15T05:37:27;6.90;;;4.40;;
215;SDS011;64590;48.81286795;9.14184224;2022-11-15T05:40:13;8.00;;;4.20;;
215;SDS011;64590;48.81286795;9.14184224;2022-11-15T05:42:58;7.20;;;4.10;;
215;SDS011;64590;48.81286795;9.14184224;2022-11-15T05:45:47;8.80;;;4.67;;
215;SDS011;64590;48.81286795;9.14184224;2022-11-15T05:48:33;7.50;;;4.30;;
215;SDS011;64590;48.81286795;9.14184224;2022-11-15T05:51:19;8.30;;;4.00;;
215;SDS011;64590;48.81286795;9.14184224;2022-11-15T05:54:08;9.10;;;4.53;;
215;SDS011;64590;48.81286795;9.14184224;2022-11-15T05:56:55;9.00;;;4.43;;
215;SDS011;64590;48.81286795;9.14184224;2022-11-15T05:59:40;6.77;;;4.00;;
215;SDS011;64590;48.81286795;9.14184224;2022-11-15T06:02:27;12.67;;;4.70;;
215;SDS011;64590;48.81286795;9.14184224;2022-11-15T06:05:12;10.03;;;4.93;;
215;SDS011;64590;48.81286795;9.14184224;2022-11-15T06:07:57;8.30;;;4.93;;
215;SDS011;64590;48.81286795;9.14184224;2022-11-15T06:10:44;8.57;;;5.23;;
215;SDS011;64590;48.81286795;9.14184224;2022-11-15T06:13:29;9.40;;;5.20;;
215;SDS011;64590;48.81286795;9.14184224;2022-11-15T06:16:14;18.93;;;6.23;;
215;SDS011;64590;48.81286795;9.14184224;2022-11-15T06:18:59;12.77;;;5.70;;
215;SDS011;64590;48.81286795;9.14184224;2022-11-15T06:21:45;9.73;;;6.00;;
215;SDS011;64590;48.81286795;9.14184224;2022-11-15T06:24:30;12.37;;;6.60;;
215;SDS011;64590;48.81286795;9.14184224;2022-11-15T06:27:16;19.73;;;6.00;;
215;SDS011;64590;48.81286795;9.14184224;2022-11-15T06:30:02;16.60;;;6.20;;
215;SDS011;64590;48.81286795;9.14184224;2022-11-15T06:32:47;9.80;;;5.80;;
215;SDS011;64590;48.81286795;9.14184224;2022-11-15T06:35:33;11.20;;;6.10;;
215;SDS011;64590;48.81286795;9.14184224;2022-11-15T06:38:19;11.87;;;6.77;;
215;SDS011;64590;48.81286795;9.14184224;2022-11-15T06:41:05;9.33;;;5.90;;
215;SDS011;64590;48.81286795;9.14184224;2022-11-15T06:43:52;11.10;;;6.23;;
215;SDS011;64590;48.81286795;9.14184224;2022-11-15T06:46:38;10.40;;;5.73;;
215;SDS011;64590;48.81286795;9.14184224;2022-11-15T06:49:22;11.33;;;6.00;;
215;SDS011;64590;48.81286795;9.14184224;2022-11-15T06:52:08;9.77;;;5.83;;
215;SDS011;64590;48.81286795;9.14184224;2022-11-15T06:54:53;15.63;;;6.30;;
215;SDS011;64590;48.81286795;9.14184224;2022-11-15T06:57:45;11.37;;;6.10;;
215;SDS011;64590;48.81286795;9.14184224;2022-11-15T07:00:32;9.80;;;5.60;;
215;SDS011;64590;48.81286795;9.14184224;2022-11-15T07:03:17;13.53;;;5.90;;
215;SDS011;64590;48.81286795;9.14184224;2022-11-15T07:06:02;9.53;;;5.80;;
215;SDS011;64590;48.81286795;9.14184224;2022-11-15T07:08:48;9.50;;;5.70;;
215;SDS011;64590;48.81286795;9.14184224;2022-11-15T07:11:33;8.60;;;5.57;;
215;SDS011;64590;48.81286795;9.14184224;2022-11-15T07:14:18;12.00;;;6.30;;
215;SDS011;64590;48.81286795;9.14184224;2022-11-15T07:17:05;11.43;;;6.10;;
215;SDS011;64590;48.81286795;9.14184224;2022-11-15T07:19:50;10.80;;;5.80;;
215;SDS011;64590;48.81286795;9.14184224;2022-11-15T07:22:36;10.43;;;6.10;;
215;SDS011;64590;48.81286795;9.14184224;2022-11-15T07:25:21;10.40;;;5.50;;
215;SDS011;64590;48.81286795;9.14184224;2022-11-15T07:28:07;14.60;;;5.60;;
215;SDS011;64590;48.81286795;9.14184224;2022-11-15T07:30:52;10.03;;;5.27;;
215;SDS011;64590;48.81286795;9.14184224;2022-11-15T07:33:39;9.70;;;5.20;;
215;SDS011;64590;48.81286795;9.14184224;2022-11-15T07:36:24;9.27;;;4.80;;
215;SDS011;64590;48.81286795;9.14184224;2022-11-15T07:39:09;8.50;;;5.10;;
215;SDS011;64590;48.81286795;9.14184224;2022-11-15T07:41:55;7.37;;;4.30;;
215;SDS011;64590;48.81286795;9.14184224;2022-11-15T07:44:55;9.97;;;4.90;;
215;SDS011;64590;48.81286795;9.14184224;2022-11-15T07:47:40;7.50;;;4.70;;
215;SDS011;64590;48.81286795;9.14184224;2022-11-15T07:50:27;10.33;;;4.53;;
215;SDS011;64590;48.81286795;9.14184224;2022-11-15T07:53:13;8.70;;;4.27;;
215;SDS011;64590;48.81286795;9.14184224;2022-11-15T07:55:58;11.10;;;4.10;;
215;SDS011;64590;48.81286795;9.14184224;2022-11-15T07:58:45;9.17;;;4.37;;
215;SDS011;64590;48.81286795;9.14184224;2022-11-15T08:01:30;15.33;;;4.80;;
215;SDS011;64590;48.81286795;9.14184224;2022-11-15T08:04:16;7.43;;;4.23;;
215;SDS011;64590;48.81286795;9.14184224;2022-11-15T08:07:02;7.07;;;4.00;;
215;SDS011;64590;48.81286795;9.14184224;2022-11-15T08:09:47;11.77;;;4.30;;
215;SDS011;64590;48.81286795;9.14184224;2022-11-15T08:12:32;9.40;;;4.30;;
215;SDS011;64590;48.81286795;9.14184224;2022-11-15T08:15:17;9.87;;;4.40;;
215;SDS011;64590;48.81286795;9.14184224;2022-11-15T08:18:03;12.43;;;4.80;;
215;SDS011;64590;48.81286795;9.14184224;2022-11-15T08:20:50;13.30;;;4.97;;
215;SDS011;64590;48.81286795;9.14184224;2022-11-15T08:23:36;10.27;;;4.87;;
215;SDS011;64590;48.81286795;9.14184224;2022-11-15T08:26:21;10.30;;;4.20;;
215;SDS011;64590;48.81286795;9.14184224;2022-11-15T08:29:08;6.77;;;3.87;;
215;SDS011;64590;48.81286795;9.14184224;2022-11-15T08:31:54;11.30;;;4.37;;
215;SDS011;64590;48.81286795;9.14184224;2022-11-15T08:34:40;11.50;;;4.20;;
215;SDS011;64590;48.81286795;9.14184224;2022-11-15T08:37:25;7.50;;;4.20;;
215;SDS011;64590;48.81286795;9.14184224;2022-11-15T08:40:12;6.97;;;3.80;;
215;SDS011;64590;48.81286795;9.14184224;2022-11-15T08:42:57;8.33;;;4.20;;
215;SDS011;64590;48.81286795;9.14184224;2022-11-15T08:45:45;7.20;;;4.20;;
215;SDS011;64590;48.81286795;9.14184224;2022-11-15T08:48:30;7.37;;;3.80;;
215;SDS011;64590;48.81286795;9.14184224;2022-11-15T08:51:16;8.37;;;3.60;;
215;SDS011;64590;48.81286795;9.14184224;2022-11-15T08:54:01;7.77;;;3.90;;
215;SDS011;64590;48.81286795;9.14184224;2022-11-15T08:56:47;6.93;;;3.90;;
215;SDS011;64590;48.81286795;9.14184224;2022-11-15T08:59:32;6.57;;;4.00;;
215;SDS011;64590;48.81286795;9.14184224;2022-11-15T09:02:18;13.67;;;3.93;;
215;SDS011;64590;48.81286795;9.14184224;2022-11-15T09:05:03;8.30;;;3.80;;
215;SDS011;64590;48.81286795;9.14184224;2022-11-15T09:07:52;5.90;;;3.50;;
215;SDS011;64590;48.81286795;9.14184224;2022-11-15T09:10:37;11.33;;;3.80;;
215;SDS011;64590;48.81286795;9.14184224;2022-11-15T09:13:24;6.70;;;3.80;;
215;SDS011;64590;48.81286795;9.14184224;2022-11-15T09:16:09;8.60;;;4.10;;
215;SDS011;64590;48.81286795;9.14184224;2022-11-15T09:18:55;7.50;;;4.87;;
215;SDS011;64590;48.81286795;9.14184224;2022-11-15T09:21:41;9.00;;;4.83;;
215;SDS011;64590;48.81286795;9.14184224;2022-11-15T09:24:26;12.60;;;6.33;;
215;SDS011;64590;48.81286795;9.14184224;2022-11-15T09:27:11;14.30;;;5.50;;
215;SDS011;64590;48.81286795;9.14184224;2022-11-15T09:29:58;15.10;;;6.07;;
215;SDS011;64590;48.81286795;9.14184224;2022-11-15T09:32:43;11.13;;;5.80;;
215;SDS011;64590;48.81286795;9.14184224;2022-11-15T09:35:28;18.10;;;6.73;;
215;SDS011;64590;48.81286795;9.14184224;2022-11-15T09:38:14;13.43;;;6.13;;
215;SDS011;64590;48.81286795;9.14184224;2022-11-15T09:41:08;20.07;;;7.10;;
215;SDS011;64590;48.81286795;9.14184224;2022-11-15T09:44:09;21.27;;;6.80;;
215;SDS011;64590;48.81286795;9.14184224;2022-11-15T09:47:10;14.90;;;7.00;;
215;SDS011;64590;48.81286795;9.14184224;2022-11-15T09:50:14;11.07;;;6.60;;
215;SDS011;64590;48.81286795;9.14184224;2022-11-15T09:52:43;16.80;;;6.63;;
215;SDS011;64590;48.81286795;9.14184224;2022-11-15T09:55:12;16.93;;;7.13;;
215;SDS011;64590;48.81286795;9.14184224;2022-11-15T09:57:48;16.57;;;7.20;;
215;SDS011;64590;48.81286795;9.14184224;2022-11-15T10:00:19;14.23;;;7.10;;
215;SDS011;64590;48.81286795;9.14184224;2022-11-15T10:03:02;15.50;;;7.30;;
215;SDS011;64590;48.81286795;9.14184224;2022-11-15T10:05:37;13.73;;;6.47;;
215;SDS011;64590;48.81286795;9.14184224;2022-11-15T10:08:10;17.27;;;7.30;;
215;SDS011;64590;48.81286795;9.14184224;2022-11-15T10:10:43;14.53;;;6.80;;
215;SDS011;64590;48.81286795;9.14184224;2022-11-15T10:13:13;17.90;;;6.77;;
215;SDS011;64590;48.81286795;9.14184224;2022-11-15T10:15:43;14.20;;;7.23;;
215;SDS011;64590;48.81286795;9.14184224;2022-11-15T10:18:17;12.73;;;6.90;;
215;SDS011;64590;48.81286795;9.14184224;2022-11-15T10:20:54;13.63;;;7.10;;
215;SDS011;64590;48.81286795;9.14184224;2022-11-15T10:23:24;21.17;;;7.20;;
215;SDS011;64590;48.81286795;9.14184224;2022-11-15T10:25:51;19.03;;;7.40;;
215;SDS011;64590;48.81286795;9.14184224;2022-11-15T10:28:21;13.40;;;6.20;;
215;SDS011;64590;48.81286795;9.14184224;2022-11-15T10:30:51;15.00;;;6.40;;
215;SDS011;64590;48.81286795;9.14184224;2022-11-15T10:33:32;12.33;;;5.17;;
215;SDS011;64590;48.81286795;9.14184224;2022-11-15T10:36:14;8.67;;;4.40;;
215;SDS011;64590;48.81286795;9.14184224;2022-11-15T10:38:52;9.10;;;4.10;;
215;SDS011;64590;48.81286795;9.14184224;2022-11-15T10:41:22;10.17;;;4.40;;
215;SDS011;64590;48.81286795;9.14184224;2022-11-15T10:44:12;7.47;;;4.00;;
215;SDS011;64590;48.81286795;9.14184224;2022-11-15T10:46:45;49.67;;;5.20;;
215;SDS011;64590;48.81286795;9.14184224;2022-11-15T10:49:17;88.83;;;7.70;;
215;SDS011;64590;48.81286795;9.14184224;2022-11-15T10:51:46;9.70;;;4.60;;
215;SDS011;64590;48.81286795;9.14184224;2022-11-15T10:54:16;13.50;;;5.20;;
215;SDS011;64590;48.81286795;9.14184224;2022-11-15T10:56:49;15.17;;;7.00;;
215;SDS011;64590;48.81286795;9.14184224;2022-11-15T10:59:19;32.30;;;8.93;;
215;SDS011;64590;48.81286795;9.14184224;2022-11-15T11:01:52;22.50;;;7.70;;
215;SDS011;64590;48.81286795;9.14184224;2022-11-15T11:04:20;98.30;;;9.90;;
215;SDS011;64590;48.81286795;9.14184224;2022-11-15T11:06:48;34.33;;;7.70;;
215;SDS011;64590;48.81286795;9.14184224;2022-11-15T11:09:27;20.20;;;7.10;;
215;SDS011;64590;48.81286795;9.14184224;2022-11-15T11:11:57;13.47;;;7.00;;
215;SDS011;64590;48.81286795;9.14184224;2022-11-15T11:14:24;12.73;;;6.77;;
215;SDS011;64590;48.81286795;9.14184224;2022-11-15T11:16:54;14.40;;;6.70;;
215;SDS011;64590;48.81286795;9.14184224;2022-11-15T11:19:36;20.53;;;7.27;;
215;SDS011;64590;48.81286795;9.14184224;2022-11-15T11:22:15;12.83;;;7.47;;
215;SDS011;64590;48.81286795;9.14184224;2022-11-15T11:24:48;22.83;;;7.13;;
215;SDS011;64590;48.81286795;9.14184224;2022-11-15T11:27:24;17.27;;;7.00;;
215;SDS011;64590;48.81286795;9.14184224;2022-11-15T11:30:12;17.30;;;6.87;;
215;SDS011;64590;48.81286795;9.14184224;2022-11-15T11:33:01;17.63;;;7.53;;
215;SDS011;64590;48.81286795;9.14184224;2022-11-15T11:35:38;19.27;;;7.40;;
215;SDS011;64590;48.81286795;9.14184224;2022-11-15T11:38:17;16.60;;;7.50;;
215;SDS011;64590;48.81286795;9.14184224;2022-11-15T11:40:57;14.60;;;7.27;;
215;SDS011;64590;48.81286795;9.14184224;2022-11-15T11:43:32;16.03;;;6.90;;
215;SDS011;64590;48.81286795;9.14184224;2022-11-15T11:46:16;17.73;;;7.23;;
215;SDS011;64590;48.81286795;9.14184224;2022-11-15T11:48:53;15.47;;;6.90;;
215;SDS011;64590;48.81286795;9.14184224;2022-11-15T11:51:32;16.40;;;8.00;;
215;SDS011;64590;48.81286795;9.14184224;2022-11-15T11:54:03;14.50;;;7.47;;
215;SDS011;64590;48.81286795;9.14184224;2022-11-15T11:56:36;13.33;;;7.27;;
215;SDS011;64590;48.81286795;9.14184224;2022-11-15T11:59:05;12.10;;;6.90;;
215;SDS011;64590;48.81286795;9.14184224;2022-11-15T12:01:43;15.93;;;7.70;;
215;SDS011;64590;48.81286795;9.14184224;2022-11-15T12:04:13;15.30;;;7.27;;
215;SDS011;64590;48.81286795;9.14184224;2022-11-15T12:06:46;16.60;;;7.27;;
215;SDS011;64590;48.81286795;9.14184224;2022-11-15T12:09:17;12.53;;;6.70;;
215;SDS011;64590;48.81286795;9.14184224;2022-11-15T12:11:50;14.17;;;7.27;;
215;SDS011;64590;48.81286795;9.14184224;2022-11-15T12:14:24;15.13;;;7.10;;
215;SDS011;64590;48.81286795;9.14184224;2022-11-15T12:16:57;16.50;;;7.27;;
215;SDS011;64590;48.81286795;9.14184224;2022-11-15T12:19:24;14.73;;;7.50;;
215;SDS011;64590;48.81286795;9.14184224;2022-11-15T12:21:54;21.43;;;8.30;;
215;SDS011;64590;48.81286795;9.14184224;2022-11-15T12:24:27;19.43;;;8.37;;
215;SDS011;64590;48.81286795;9.14184224;2022-11-15T12:26:59;15.90;;;8.37;;
215;SDS011;64590;48.81286795;9.14184224;2022-11-15T12:29:30;17.40;;;8.40;;
215;SDS011;64590;48.81286795;9.14184224;2022-11-15T12:32:00;18.47;;;8.43;;
215;SDS011;64590;48.81286795;9.14184224;2022-11-15T12:34:30;17.80;;;8.27;;
215;SDS011;64590;48.81286795;9.14184224;2022-11-15T12:37:04;15.50;;;7.87;;
215;SDS011;64590;48.81286795;9.14184224;2022-11-15T12:40:19;19.57;;;8.57;;
215;SDS011;64590;48.81286795;9.14184224;2022-11-15T12:46:10;21.27;;;9.03;;
215;SDS011;64590;48.81286795;9.14184224;2022-11-15T12:48:49;25.93;;;9.47;;
215;SDS011;64590;48.81286795;9.14184224;2022-11-15T12:51:19;19.23;;;9.00;;
215;SDS011;64590;48.81286795;9.14184224;2022-11-15T12:53:48;22.60;;;8.77;;
215;SDS011;64590;48.81286795;9.14184224;2022-11-15T12:56:19;22.10;;;9.30;;
215;SDS011;64590;48.81286795;9.14184224;2022-11-15T12:58:48;19.53;;;9.07;;
215;SDS011;64590;48.81286795;9.14184224;2022-11-15T13:04:24;18.67;;;8.57;;
215;SDS011;64590;48.81286795;9.14184224;2022-11-15T13:06:53;18.13;;;7.83;;
215;SDS011;64590;48.81286795;9.14184224;2022-11-15T13:15:33;19.47;;;8.13;;
215;SDS011;64590;48.81286795;9.14184224;2022-11-15T13:20:55;20.27;;;10.67;;
215;SDS011;64590;48.81286795;9.14184224;2022-11-15T13:23:21;19.37;;;8.30;;
215;SDS011;64590;48.81286795;9.14184224;2022-11-15T13:26:00;22.50;;;8.83;;
215;SDS011;64590;48.81286795;9.14184224;2022-11-15T13:28:39;16.07;;;8.50;;
215;SDS011;64590;48.81286795;9.14184224;2022-11-15T13:31:18;15.77;;;8.40;;
215;SDS011;64590;48.81286795;9.14184224;2022-11-15T13:33:50;18.57;;;8.10;;
215;SDS011;64590;48.81286795;9.14184224;2022-11-15T13:36:20;27.10;;;8.43;;
215;SDS011;64590;48.81286795;9.14184224;2022-11-15T13:38:54;21.77;;;8.20;;
215;SDS011;64590;48.81286795;9.14184224;2022-11-15T13:41:25;19.97;;;8.23;;
215;SDS011;64590;48.81286795;9.14184224;2022-11-15T13:43:53;19.30;;;8.33;;
215;SDS011;64590;48.81286795;9.14184224;2022-11-15T13:46:21;13.47;;;6.37;;
215;SDS011;64590;48.81286795;9.14184224;2022-11-15T13:48:51;15.20;;;6.10;;
215;SDS011;64590;48.81286795;9.14184224;2022-11-15T13:51:21;13.33;;;5.90;;
215;SDS011;64590;48.81286795;9.14184224;2022-11-15T13:53:54;16.90;;;5.80;;
215;SDS011;64590;48.81286795;9.14184224;2022-11-15T13:56:25;15.90;;;5.50;;
215;SDS011;64590;48.81286795;9.14184224;2022-11-15T13:58:55;13.73;;;5.43;;
215;SDS011;64590;48.81286795;9.14184224;2022-11-15T14:01:21;8.60;;;5.10;;
215;SDS011;64590;48.81286795;9.14184224;2022-11-15T14:03:51;10.53;;;5.20;;
215;SDS011;64590;48.81286795;9.14184224;2022-11-15T14:06:21;12.70;;;5.23;;
215;SDS011;64590;48.81286795;9.14184224;2022-11-15T14:14:51;10.53;;;5.20;;
215;SDS011;64590;48.81286795;9.14184224;2022-11-15T14:17:19;10.40;;;5.70;;
215;SDS011;64590;48.81286795;9.14184224;2022-11-15T14:19:48;12.87;;;5.70;;
215;SDS011;64590;48.81286795;9.14184224;2022-11-15T14:22:17;11.90;;;6.03;;
215;SDS011;64590;48.81286795;9.14184224;2022-11-15T14:24:47;9.30;;;5.27;;
215;SDS011;64590;48.81286795;9.14184224;2022-11-15T14:27:32;36.03;;;13.20;;
215;SDS011;64590;48.81286795;9.14184224;2022-11-15T14:29:59;31.63;;;13.40;;
215;SDS011;64590;48.81286795;9.14184224;2022-11-15T14:32:27;15.07;;;7.87;;
215;SDS011;64590;48.81286795;9.14184224;2022-11-15T14:34:55;17.93;;;8.57;;
215;SDS011;64590;48.81286795;9.14184224;2022-11-15T14:37:24;17.17;;;8.80;;
215;SDS011;64590;48.81286795;9.14184224;2022-11-15T14:39:51;18.40;;;9.30;;
215;SDS011;64590;48.81286795;9.14184224;2022-11-15T14:42:19;18.00;;;8.90;;
215;SDS011;64590;48.81286795;9.14184224;2022-11-15T14:44:48;20.40;;;9.70;;
215;SDS011;64590;48.81286795;9.14184224;2022-11-15T14:47:15;19.33;;;8.67;;